Time;durP1;ratioP1;P1;durP2;ratioP2;P2;SDS_P1;SDS_P2;PMS_P1;PMS_P2;Temp;Humidity;BMP_temperature;BMP_pressure;BME280_temperature;BME280_humidity;BME280_pressure;Samples;Min_cycle;Max_cycle;Signal;HPM_P1;HPM_P2
2021/08/05 00:00:40;;;;;;;;;;;;;;;;;;;;;
2021/08/05 00:07:33;;;;;;;;;;;;;;;;;;;;;
2021/08/05 00:10:04;;;;;;;;;;;;;;;;;;;;;
2021/08/05 00:16:06;;;;;;;3.17;2.73;;;24.10;56.50;;;;;;6155998;23;20390;-93
2021/08/05 00:19:11;;;;;;;;;;;;;;;;;;;;;
2021/08/05 00:21:46;;;;;;;3.93;3.00;;;24.10;56.50;;;;;;6170075;23;20368;-93
2021/08/05 00:25:04;;;;;;;;;;;;;;;;;;;;;
2021/08/05 00:27:38;;;;;;;3.17;2.87;;;24.10;56.50;;;;;;6109872;23;20473;-92
2021/08/05 00:30:47;;;;;;;4.47;3.00;;;24.10;56.40;;;;;;6159327;22;20462;-92
2021/08/05 00:33:25;;;;;;;3.73;3.43;;;24.10;56.40;;;;;;6265755;22;20400;-92
2021/08/05 00:35:59;;;;;;;2.93;2.73;;;24.10;56.40;;;;;;6291708;22;20392;-92
2021/08/05 00:39:09;;;;;;;3.70;2.70;;;24.10;56.40;;;;;;6292108;22;20387;-92
2021/08/05 00:42:13;;;;;;;3.30;3.00;;;24.10;56.50;;;;;;6279388;22;20384;-92
2021/08/05 00:48:32;;;;;;;2.60;2.40;;;24.10;56.40;;;;;;6292694;22;20781;-87
2021/08/05 00:51:09;;;;;;;3.60;3.30;;;24.10;56.40;;;;;;6265513;22;20373;-88
2021/08/05 00:57:40;;;;;;;;;;;;;;;;;;;;;
2021/08/05 01:00:29;;;;;;;3.53;3.23;;;24.10;56.50;;;;;;6198643;23;20921;-88
2021/08/05 01:06:35;;;;;;;3.13;2.83;;;24.10;56.40;;;;;;6191828;23;20908;-88
2021/08/05 01:09:12;;;;;;;3.70;3.10;;;24.10;56.50;;;;;;6174000;23;20423;-88
2021/08/05 01:12:00;;;;;;;;;;;;;;;;;;;;;
2021/08/05 01:15:00;;;;;;;3.27;2.97;;;24.10;56.50;;;;;;6198491;23;20421;-88
2021/08/05 01:17:57;;;;;;;3.00;2.60;;;24.10;56.50;;;;;;6173735;23;20391;-88
2021/08/05 01:21:04;;;;;;;3.43;3.13;;;24.10;56.50;;;;;;6172725;23;20387;-88
2021/08/05 01:23:50;;;;;;;3.57;2.90;;;24.10;56.50;;;;;;6173047;23;20393;-88
2021/08/05 01:26:57;;;;;;;4.87;3.00;;;24.10;56.60;;;;;;6174727;23;20875;-87
2021/08/05 01:33:11;;;;;;;;;;;;;;;;;;;;;
2021/08/05 01:35:32;;;;;;;3.60;2.93;;;24.00;56.80;;;;;;6280385;22;20462;-88
2021/08/05 01:38:10;;;;;;;2.93;2.40;;;24.00;56.90;;;;;;6291755;22;20403;-88
2021/08/05 01:41:02;;;;;;;2.83;2.53;;;24.00;56.80;;;;;;6292341;22;20361;-88
2021/08/05 01:43:42;;;;;;;3.17;2.70;;;24.00;56.70;;;;;;6265559;22;20463;-87
2021/08/05 01:46:21;;;;;;;3.20;2.90;;;24.00;56.70;;;;;;6291805;22;20368;-88
2021/08/05 01:49:06;;;;;;;3.80;3.10;;;24.00;56.70;;;;;;6265503;22;20419;-88
2021/08/05 01:52:12;;;;;;;3.33;2.80;;;24.00;57.00;;;;;;6265323;22;20376;-88
2021/08/05 01:57:48;;;;;;;3.53;3.20;;;24.00;56.90;;;;;;6293653;22;20360;-88
2021/08/05 02:00:23;;;;;;;3.40;3.10;;;24.00;56.70;;;;;;6292686;22;20434;-87
2021/08/05 02:03:05;;;;;;;;;;;;;;;;;;;;;
2021/08/05 02:12:34;;;;;;;6.03;2.87;;;24.00;56.90;;;;;;6200886;23;20445;-88
2021/08/05 02:15:10;;;;;;;3.10;2.87;;;24.00;56.90;;;;;;6169841;23;20394;-88
2021/08/05 02:17:44;;;;;;;3.07;2.60;;;24.00;57.00;;;;;;6197944;23;20466;-87
2021/08/05 02:20:25;;;;;;;;;;;;;;;;;;;;;
2021/08/05 02:23:08;;;;;;;3.10;2.80;;;24.00;56.80;;;;;;6200817;23;20360;-88
2021/08/05 02:25:56;;;;;;;;;;;;;;;;;;;;;
2021/08/05 02:28:31;;;;;;;3.20;2.67;;;24.00;57.00;;;;;;6200083;23;20435;-88
2021/08/05 02:31:10;;;;;;;3.40;3.00;;;24.00;57.10;;;;;;6200183;23;20374;-88
2021/08/05 02:33:52;;;;;;;;;;;;;;;;;;;;;
2021/08/05 02:36:36;;;;;;;2.70;2.50;;;24.00;56.90;;;;;;6199976;23;20387;-88
2021/08/05 02:39:19;;;;;;;3.17;2.97;;;24.00;56.90;;;;;;6192028;22;20378;-88
2021/08/05 02:41:54;;;;;;;3.07;2.77;;;24.00;56.90;;;;;;6266081;22;20422;-88
2021/08/05 02:44:30;;;;;;;3.50;3.20;;;24.00;56.80;;;;;;6266999;22;20842;-88
2021/08/05 02:47:07;;;;;;;2.87;2.57;;;24.00;56.80;;;;;;6266297;22;20381;-88
2021/08/05 02:49:48;;;;;;;;;;;;;;;;;;;;;
2021/08/05 02:52:33;;;;;;;2.80;2.50;;;24.00;56.80;;;;;;6283811;22;20384;-88
2021/08/05 02:58:03;;;;;;;2.87;2.67;;;24.00;56.80;;;;;;6292695;22;20391;-88
2021/08/05 03:00:55;;;;;;;3.40;3.10;;;24.00;56.80;;;;;;6289937;22;20388;-88
2021/08/05 03:03:25;;;;;;;2.60;2.40;;;24.00;56.80;;;;;;6265532;22;20377;-88
2021/08/05 03:05:56;;;;;;;3.60;3.30;;;24.00;56.80;;;;;;6266031;22;20424;-88
2021/08/05 03:08:48;;;;;;;3.43;2.47;;;24.00;56.70;;;;;;6292948;22;20397;-88
2021/08/05 03:11:40;;;;;;;2.70;2.50;;;24.00;56.60;;;;;;6266959;22;20430;-88
2021/08/05 03:14:28;;;;;;;3.20;2.90;;;24.00;56.70;;;;;;6266595;22;20471;-87
2021/08/05 03:23:18;;;;;;;2.50;2.30;;;24.00;56.70;;;;;;6272374;22;20714;-88
2021/08/05 03:26:13;;;;;;;2.40;2.20;;;24.00;56.70;;;;;;6292653;22;20444;-88
2021/08/05 03:28:55;;;;;;;2.57;2.33;;;23.90;56.80;;;;;;6265853;22;20416;-88
2021/08/05 03:32:05;;;;;;;;;;;;;;;;;;;;;
2021/08/05 03:42:09;;;;;;;2.60;2.40;;;23.90;56.70;;;;;;6199963;23;20386;-88
2021/08/05 03:44:59;;;;;;;2.80;2.60;;;23.90;56.80;;;;;;6174140;23;20394;-88
2021/08/05 03:48:14;;;;;;;2.67;2.47;;;23.90;56.70;;;;;;6170368;23;20499;-88
2021/08/05 03:57:37;;;;;;;2.67;2.47;;;23.90;56.70;;;;;;6081726;23;20382;-88
2021/08/05 04:03:47;;;;;;;2.57;2.37;;;23.90;56.90;;;;;;6025670;23;20385;-88
2021/08/05 04:06:42;;;;;;;3.20;2.53;;;23.90;56.90;;;;;;5996529;24;20390;-88
2021/08/05 04:09:35;;;;;;;;;;;;;;;;;;;;;
2021/08/05 04:12:38;;;;;;;2.93;2.63;;;23.90;56.90;;;;;;5912550;24;20411;-88
2021/08/05 04:15:17;;;;;;;2.90;2.70;;;23.90;56.90;;;;;;5913371;24;20388;-88
2021/08/05 04:18:08;;;;;;;;;;;;;;;;;;;;;
2021/08/05 04:20:59;;;;;;;2.33;2.13;;;23.90;56.90;;;;;;5968119;24;20427;-88
2021/08/05 04:23:57;;;;;;;3.40;2.67;;;23.90;56.80;;;;;;5944730;24;20390;-88
2021/08/05 04:26:58;;;;;;;3.97;2.80;;;23.90;56.80;;;;;;5944673;24;20465;-88
2021/08/05 04:29:38;;;;;;;2.70;2.50;;;23.90;56.80;;;;;;5942358;24;20433;-88
2021/08/05 04:32:25;;;;;;;3.20;2.90;;;23.90;56.90;;;;;;5944833;24;20414;-88
2021/08/05 04:35:19;;;;;;;3.10;2.30;;;23.90;56.90;;;;;;5913159;24;20419;-87
2021/08/05 04:51:45;;;;;;;2.67;2.47;;;23.90;56.90;;;;;;6142973;23;20364;-86
2021/08/05 05:12:21;;;;;;;3.20;2.90;;;23.80;57.10;;;;;;5864136;24;20410;-86
2021/08/05 06:10:57;;;;;;;2.47;2.27;;;23.80;57.00;;;;;;5835074;24;20427;-92
2021/08/05 06:24:46;;;;;;;;;;;;;;;;;;;;;
2021/08/05 06:38:56;;;;;;;;;;;;;;;;;;;;;
2021/08/05 06:53:02;;;;;;;;;;;;;;;;;;;;;
2021/08/05 07:43:24;;;;;;;2.70;2.47;;;23.80;57.20;;;;;;5807696;24;20398;-87
2021/08/05 08:07:21;;;;;;;;;;;;;;;;;;;;;
2021/08/05 08:14:14;;;;;;;;;;;;;;;;;;;;;
2021/08/05 08:30:31;;;;;;;;;;;;;;;;;;;;;
2021/08/05 08:33:56;;;;;;;;;;;;;;;;;;;;;
2021/08/05 08:40:34;;;;;;;;;;;;;;;;;;;;;
2021/08/05 08:54:13;;;;;;;;;;;;;;;;;;;;;
2021/08/05 09:13:48;;;;;;;3.23;2.93;;;23.60;57.20;;;;;;5946685;23;20386;-85
2021/08/05 09:23:55;;;;;;;2.97;2.70;;;23.60;57.10;;;;;;6057469;23;20429;-86
2021/08/05 09:58:51;;;;;;;;;;;;;;;;;;;;;
2021/08/05 10:29:49;;;;;;;3.30;2.70;;;23.80;57.50;;;;;;5996790;23;20452;-87
2021/08/05 10:32:54;;;;;;;;;;;;;;;;;;;;;
2021/08/05 11:00:33;;;;;;;3.67;3.33;;;23.70;57.60;;;;;;5940234;23;20386;-87
2021/08/05 11:41:35;;;;;;;;;;;;;;;;;;;;;
2021/08/05 11:45:04;;;;;;;;;;;;;;;;;;;;;
2021/08/05 11:52:59;;;;;;;;;;;;;;;;;;;;;
2021/08/05 12:05:24;;;;;;;3.00;2.70;;;23.70;55.90;;;;;;6081117;23;20422;-86
2021/08/05 12:53:31;;;;;;;;;;;;;;;;;;;;;
2021/08/05 12:56:42;;;;;;;2.80;2.53;;;23.80;56.00;;;;;;5854855;24;20393;-85
2021/08/05 12:59:14;;;;;;;2.47;2.27;;;23.80;55.30;;;;;;5883653;24;20396;-86
2021/08/05 13:06:27;;;;;;;2.60;2.40;;;23.90;55.60;;;;;;5966277;24;20390;-84
2021/08/05 13:57:43;;;;;;;2.53;2.33;;;24.00;55.50;;;;;;5887015;24;20378;-86
2021/08/05 14:11:11;;;;;;;2.93;2.33;;;24.00;55.40;;;;;;5901631;24;20439;-85
2021/08/05 14:17:53;;;;;;;2.87;2.67;;;24.00;55.60;;;;;;5913364;24;20809;-85
2021/08/05 14:41:12;;;;;;;4.00;3.60;;;24.00;55.80;;;;;;5932378;24;20379;-85
2021/08/05 14:44:38;;;;;;;;;;;;;;;;;;;;;
2021/08/05 19:52:30;;;;;;;3.37;2.73;;;23.90;57.10;;;;;;6240027;23;20389;-84
2021/08/05 19:58:40;;;;;;;4.30;2.60;;;23.90;56.90;;;;;;6236867;23;20369;-82
2021/08/05 20:01:13;;;;;;;2.70;2.50;;;23.90;56.90;;;;;;6237562;23;20334;-81
2021/08/05 20:03:49;;;;;;;4.00;2.20;;;23.90;56.80;;;;;;6212283;23;20379;-81
2021/08/05 20:06:26;;;;;;;4.20;2.23;;;23.90;57.10;;;;;;6212017;23;20397;-81
2021/08/05 20:08:59;;;;;;;4.63;2.60;;;23.90;57.30;;;;;;6238009;23;20462;-80
2021/08/05 20:11:31;;;;;;;3.50;2.30;;;23.90;57.50;;;;;;6212175;23;20389;-81
2021/08/05 20:14:51;;;;;;;3.33;3.03;;;23.90;57.40;;;;;;6187535;23;20383;-82
2021/08/05 20:17:24;;;;;;;4.00;2.40;;;23.90;57.40;;;;;;6128712;23;20460;-82
2021/08/05 20:20:07;;;;;;;3.23;2.83;;;23.90;57.50;;;;;;6176989;23;20384;-82
2021/08/05 20:33:33;;;;;;;3.53;2.10;;;23.90;57.80;;;;;;6079893;23;20400;-82
2021/08/05 20:36:26;;;;;;;3.43;1.83;;;23.80;58.20;;;;;;6118158;23;20392;-82
2021/08/05 20:45:33;;;;;;;1.90;1.70;;;23.70;58.10;;;;;;6118277;23;20381;-82
2021/08/05 20:48:07;;;;;;;2.70;1.77;;;23.60;58.20;;;;;;6118066;23;20432;-82
2021/08/05 20:50:37;;;;;;;2.13;1.70;;;23.60;58.10;;;;;;6118267;23;20396;-81
2021/08/05 20:53:07;;;;;;;2.40;1.70;;;23.60;58.10;;;;;;6125327;23;20400;-81
2021/08/05 20:55:39;;;;;;;2.00;1.70;;;23.60;58.30;;;;;;6122494;23;20389;-81
2021/08/05 20:58:06;;;;;;;2.30;1.63;;;23.60;58.20;;;;;;6146364;23;20377;-81
2021/08/05 21:00:35;;;;;;;2.10;1.73;;;23.60;58.20;;;;;;6157096;23;20367;-82
2021/08/05 21:03:09;;;;;;;2.97;1.83;;;23.60;58.10;;;;;;6183626;23;20439;-82
2021/08/05 21:05:40;;;;;;;3.67;2.33;;;23.60;58.60;;;;;;6181736;23;20406;-82
2021/08/05 21:08:33;;;;;;;2.53;1.70;;;23.50;58.60;;;;;;6208319;23;20474;-82
2021/08/05 21:11:18;;;;;;;3.20;2.00;;;23.60;58.60;;;;;;6207757;23;20375;-82
2021/08/05 21:13:46;;;;;;;3.10;1.90;;;23.50;58.50;;;;;;6191324;23;20382;-82
2021/08/05 21:16:26;;;;;;;2.23;1.70;;;23.50;59.10;;;;;;6210303;23;20359;-82
2021/08/05 21:18:56;;;;;;;1.40;1.20;;;23.50;58.40;;;;;;6208339;23;20386;-81
2021/08/05 21:21:23;;;;;;;2.20;1.40;;;23.50;58.30;;;;;;6185457;23;20375;-81
2021/08/05 21:23:53;;;;;;;5.67;1.80;;;23.60;58.50;;;;;;6184999;23;20391;-81
2021/08/05 21:26:25;;;;;;;3.20;1.60;;;23.50;58.40;;;;;;6240364;23;20370;-81
2021/08/05 21:28:55;;;;;;;2.00;1.80;;;23.60;58.30;;;;;;6240747;23;20498;-81
2021/08/05 21:31:25;;;;;;;2.80;1.70;;;23.60;58.20;;;;;;6238072;23;20386;-81
2021/08/05 21:33:52;;;;;;;2.83;1.80;;;23.60;58.20;;;;;;6264236;23;20417;-81
2021/08/05 21:36:26;;;;;;;2.37;1.90;;;23.60;58.30;;;;;;6239785;23;20343;-81
2021/08/05 21:39:05;;;;;;;2.47;2.07;;;23.60;58.20;;;;;;6263409;23;20385;-82
2021/08/05 21:41:36;;;;;;;2.60;1.80;;;23.60;58.40;;;;;;6215537;23;20389;-82
2021/08/05 21:44:10;;;;;;;4.27;2.00;;;23.60;58.60;;;;;;6238793;23;20398;-82
2021/08/05 21:46:43;;;;;;;2.00;1.80;;;23.50;58.80;;;;;;6262573;23;20457;-82
2021/08/05 21:49:14;;;;;;;3.00;1.80;;;23.50;58.90;;;;;;6239511;23;20429;-81
2021/08/05 21:51:42;;;;;;;3.70;2.30;;;23.50;58.80;;;;;;6239461;23;20771;-82
2021/08/05 21:54:09;;;;;;;2.40;2.20;;;23.50;59.00;;;;;;6263903;23;20413;-82
2021/08/05 21:56:38;;;;;;;2.83;1.73;;;23.50;59.20;;;;;;6240171;23;20385;-82
2021/08/05 21:59:07;;;;;;;4.30;1.97;;;23.40;59.00;;;;;;6238693;23;20410;-82
2021/08/05 22:01:39;;;;;;;2.40;2.07;;;23.40;59.00;;;;;;6240074;23;20354;-82
2021/08/05 22:04:04;;;;;;;3.00;1.80;;;23.40;59.00;;;;;;6240208;23;20358;-82
2021/08/05 22:06:33;;;;;;;2.07;1.67;;;23.40;59.10;;;;;;6240044;23;20372;-82
2021/08/05 22:09:20;;;;;;;2.53;1.93;;;23.40;59.10;;;;;;6239869;23;20179;-82
2021/08/05 22:11:49;;;;;;;2.30;2.10;;;23.40;59.30;;;;;;6263910;23;20401;-82
2021/08/05 22:14:27;;;;;;;2.80;2.07;;;23.30;59.30;;;;;;6239846;23;20374;-82
2021/08/05 22:16:56;;;;;;;2.53;1.93;;;23.30;59.50;;;;;;6263711;23;20425;-82
2021/08/05 22:19:23;;;;;;;2.30;1.90;;;23.20;59.60;;;;;;6238677;23;20393;-82
2021/08/05 22:21:49;;;;;;;2.20;2.00;;;23.20;59.60;;;;;;6263723;23;20386;-82
2021/08/05 22:24:15;;;;;;;2.20;2.00;;;23.20;59.50;;;;;;6262941;23;20384;-82
2021/08/05 22:26:43;;;;;;;2.10;1.80;;;23.10;59.50;;;;;;6238577;23;20147;-82
2021/08/05 22:29:11;;;;;;;2.20;1.87;;;23.20;59.20;;;;;;6238926;23;20845;-82
2021/08/05 22:31:42;;;;;;;2.20;1.80;;;23.20;59.10;;;;;;6237391;23;20402;-82
2021/08/05 22:34:14;;;;;;;2.80;1.53;;;23.30;59.20;;;;;;6262384;23;20378;-82
2021/08/05 22:36:43;;;;;;;2.07;1.87;;;23.30;58.90;;;;;;6239546;23;20357;-82
2021/08/05 22:39:09;;;;;;;2.20;2.00;;;23.30;58.80;;;;;;6262628;23;20382;-82
2021/08/05 22:41:42;;;;;;;2.10;1.80;;;23.40;58.80;;;;;;6263261;23;20445;-82
2021/08/05 22:44:07;;;;;;;2.20;2.00;;;23.40;58.60;;;;;;6239408;23;20384;-82
2021/08/05 22:46:34;;;;;;;2.20;2.00;;;23.40;58.50;;;;;;6263625;23;20386;-82
2021/08/05 22:48:59;;;;;;;1.60;1.40;;;23.50;58.50;;;;;;6238966;23;20413;-82
2021/08/05 22:51:25;;;;;;;1.70;1.60;;;23.50;58.40;;;;;;6238152;23;20382;-82
2021/08/05 22:54:03;;;;;;;2.50;1.70;;;23.50;58.30;;;;;;6263523;23;20151;-82
2021/08/05 22:57:08;;;;;;;2.30;1.60;;;23.60;58.20;;;;;;6262000;23;20374;-84
2021/08/05 23:03:19;;;;;;;1.70;1.60;;;23.60;58.40;;;;;;6176064;23;20452;-84
2021/08/05 23:07:00;;;;;;;4.23;1.93;;;23.60;58.30;;;;;;6145398;23;20369;-84
2021/08/05 23:47:56;;;;;;;1.87;1.73;;;23.50;58.10;;;;;;5894348;24;20381;-85
